Terminal Aerodrome Forecast
Issued by NWS Wilmington, OH

Current Version | Previous Version | Text Only | Print | Product List | Glossary Off
Versions: 1 2 3 4 5 6 7 8 9 10 11 12 13 14 15 16 17 18 19 20 21 22

000
FTUS41 KILN 022300
TAFILN
TAF
KILN 022320Z 0300/0324 07006KT P6SM BKN070
     FM030800 06008KT 4SM BR BKN060
     FM031200 06008KT P6SM BKN040
     FM031900 04008KT P6SM VCSH BKN040=

USA.gov is the U.S. government's official web portal to all federal, state and local government web resources and services.